Terminal Aerodrome Forecast
Issued by NWS Grand Forks, ND

Home | Current Version | Previous Version | Text Only | Print | Product List | Glossary On
Versions: 1 2 3 4 5 6 7 8 9 10 11 12 13 14 15 16 17 18 19 20
337
FTUS43 KFGF 240057 AAB
TAFGFK
TAF AMD
KGFK 240057Z 2401/2424 11014KT P6SM -SHRA BKN080
     FM240200 07009KT P6SM BKN100
     FM241700 11009KT P6SM FEW050=

USA.gov is the U.S. government's official web portal to all federal, state and local government web resources and services.